44 minutes ago
Runway Headwind Crosswind Length
6/24 4 kt 2 kt 8,366 ft
METAR EBCI 202120Z 03005KT 010V070 4000 RA OVC037 18/17 Q1007 NOSIG

METAR definition | Embed

METAR Charleroi Airport

Charleroi Airport is a large airport in Brussels, Belgium. The airport has one runway: 6/24 (8,366 ft)

This report was made for Charleroi Airport on June 20, 2021 11:20 pm, local time.

Airport observations

The wind is from direction northnortheast (030°) with a speed of 5 kt. The wind direction varies between north (010°) and eastnortheast (070°).

Visibility is 2½ mi.

There are overcast clouds at an altitude of 3,700 ft. The ceiling, broken or more, is 3,700 ft.

Current weather is rain. The temperature and wind chill are 64 °F. The dew point is 63 °F, the relative humidity is 94%. The air pressure at sea level is 29.74 inHg (QNH).

Daylight period

Today the sun rises at 5:30 am and sets at 9:57 pm. This applies to Charleroi Airport, the universal daylight period may be different. The difference between the local time and UTC is +2 hour. Daylight saving time is currently in progress.

Historical data

Donate

Will you help us to keep Metar-Taf.com running?
Your contribution helps further development of the site and to pay for the expenses.

No more ads

Are you donating $ 5 or more? Then we'll never show you ads again, as a token of our eternal gratitude!
Log in before you donate

Do you want the flying weather of Charleroi Airport on your website? Read more   Free!